sensor_id;sensor_type;location;lat;lon;timestamp;pressure;altitude;pressure_sealevel;temperature;humidity
24336;BME280;33098;52.400;16.880;2023-08-24T00:00:55;100923.29;;;21.63;69.01
24336;BME280;33098;52.400;16.880;2023-08-24T00:03:32;100924.55;;;21.62;69.08
24336;BME280;33098;52.400;16.880;2023-08-24T00:06:00;100926.41;;;21.59;69.23
24336;BME280;33098;52.400;16.880;2023-08-24T00:08:29;100928.64;;;21.57;69.40
24336;BME280;33098;52.400;16.880;2023-08-24T00:10:58;100931.25;;;21.56;69.67
24336;BME280;33098;52.400;16.880;2023-08-24T00:13:30;100932.12;;;21.51;69.73
24336;BME280;33098;52.400;16.880;2023-08-24T00:15:57;100930.55;;;21.49;69.89
24336;BME280;33098;52.400;16.880;2023-08-24T00:18:24;100928.98;;;21.44;69.98
24336;BME280;33098;52.400;16.880;2023-08-24T00:20:51;100927.89;;;21.38;70.14
24336;BME280;33098;52.400;16.880;2023-08-24T00:23:18;100929.08;;;21.38;70.45
24336;BME280;33098;52.400;16.880;2023-08-24T00:25:45;100929.21;;;21.34;70.46
24336;BME280;33098;52.400;16.880;2023-08-24T00:28:12;100930.51;;;21.31;70.76
24336;BME280;33098;52.400;16.880;2023-08-24T00:30:44;100933.99;;;21.30;70.86
24336;BME280;33098;52.400;16.880;2023-08-24T00:33:11;100934.77;;;21.27;70.98
24336;BME280;33098;52.400;16.880;2023-08-24T00:35:39;100938.33;;;21.21;71.09
24336;BME280;33098;52.400;16.880;2023-08-24T00:38:05;100941.71;;;21.17;71.25
24336;BME280;33098;52.400;16.880;2023-08-24T00:40:35;100936.40;;;21.12;71.42
24336;BME280;33098;52.400;16.880;2023-08-24T00:43:08;100934.38;;;21.08;71.59
24336;BME280;33098;52.400;16.880;2023-08-24T00:45:35;100939.08;;;21.03;71.79
24336;BME280;33098;52.400;16.880;2023-08-24T00:48:05;100937.41;;;20.99;72.03
24336;BME280;33098;52.400;16.880;2023-08-24T00:50:33;100938.67;;;20.96;72.22
24336;BME280;33098;52.400;16.880;2023-08-24T00:53:07;100941.07;;;20.91;72.36
24336;BME280;33098;52.400;16.880;2023-08-24T00:55:34;100943.69;;;20.87;72.62
24336;BME280;33098;52.400;16.880;2023-08-24T00:58:03;100946.04;;;20.84;72.84
24336;BME280;33098;52.400;16.880;2023-08-24T01:00:32;100939.36;;;20.85;73.01
24336;BME280;33098;52.400;16.880;2023-08-24T01:02:59;100945.27;;;20.90;73.15
24336;BME280;33098;52.400;16.880;2023-08-24T01:05:28;100942.48;;;20.94;73.13
24336;BME280;33098;52.400;16.880;2023-08-24T01:07:55;100940.95;;;20.97;73.10
24336;BME280;33098;52.400;16.880;2023-08-24T01:10:22;100938.40;;;20.97;73.10
24336;BME280;33098;52.400;16.880;2023-08-24T01:13:07;100939.08;;;20.97;73.12
24336;BME280;33098;52.400;16.880;2023-08-24T01:15:37;100936.15;;;20.96;73.10
24336;BME280;33098;52.400;16.880;2023-08-24T01:18:12;100939.43;;;20.93;73.19
24336;BME280;33098;52.400;16.880;2023-08-24T01:20:45;100940.88;;;20.89;73.39
24336;BME280;33098;52.400;16.880;2023-08-24T01:23:24;100942.92;;;20.90;73.38
24336;BME280;33098;52.400;16.880;2023-08-24T01:26:06;100944.09;;;20.90;73.51
24336;BME280;33098;52.400;16.880;2023-08-24T01:28:34;100940.66;;;20.91;73.56
24336;BME280;33098;52.400;16.880;2023-08-24T01:31:04;100940.39;;;20.90;73.46
24336;BME280;33098;52.400;16.880;2023-08-24T01:33:31;100937.95;;;20.85;73.59
24336;BME280;33098;52.400;16.880;2023-08-24T01:35:59;100941.82;;;20.83;73.76
24336;BME280;33098;52.400;16.880;2023-08-24T01:39:02;100942.99;;;20.82;73.93
24336;BME280;33098;52.400;16.880;2023-08-24T01:41:36;100947.96;;;20.80;73.96
24336;BME280;33098;52.400;16.880;2023-08-24T01:44:13;100949.27;;;20.81;74.03
24336;BME280;33098;52.400;16.880;2023-08-24T01:46:48;100948.04;;;20.78;74.21
24336;BME280;33098;52.400;16.880;2023-08-24T01:49:17;100946.66;;;20.73;74.22
24336;BME280;33098;52.400;16.880;2023-08-24T01:51:48;100940.77;;;20.66;74.42
24336;BME280;33098;52.400;16.880;2023-08-24T01:54:16;100939.19;;;20.58;74.53
24336;BME280;33098;52.400;16.880;2023-08-24T01:56:42;100941.13;;;20.55;74.77
24336;BME280;33098;52.400;16.880;2023-08-24T01:59:09;100939.91;;;20.50;74.93
24336;BME280;33098;52.400;16.880;2023-08-24T02:01:39;100937.00;;;20.44;75.09
24336;BME280;33098;52.400;16.880;2023-08-24T02:04:06;100941.28;;;20.34;75.23
24336;BME280;33098;52.400;16.880;2023-08-24T02:06:33;100939.13;;;20.22;75.32
24336;BME280;33098;52.400;16.880;2023-08-24T02:08:59;100939.94;;;20.14;75.87
24336;BME280;33098;52.400;16.880;2023-08-24T02:11:26;100944.75;;;20.12;76.28
24336;BME280;33098;52.400;16.880;2023-08-24T02:13:53;100946.64;;;20.11;76.62
24336;BME280;33098;52.400;16.880;2023-08-24T02:16:23;100952.08;;;20.07;76.73
24336;BME280;33098;52.400;16.880;2023-08-24T02:18:51;100949.36;;;20.01;76.96
24336;BME280;33098;52.400;16.880;2023-08-24T02:21:18;100947.71;;;19.94;77.10
24336;BME280;33098;52.400;16.880;2023-08-24T02:23:48;100951.02;;;19.86;77.41
24336;BME280;33098;52.400;16.880;2023-08-24T02:26:16;100953.98;;;19.82;77.75
24336;BME280;33098;52.400;16.880;2023-08-24T02:28:43;100949.48;;;19.78;78.06
24336;BME280;33098;52.400;16.880;2023-08-24T02:31:10;100947.01;;;19.72;78.25
24336;BME280;33098;52.400;16.880;2023-08-24T02:33:37;100949.61;;;19.69;78.48
24336;BME280;33098;52.400;16.880;2023-08-24T02:36:04;100951.58;;;19.62;78.75
24336;BME280;33098;52.400;16.880;2023-08-24T02:38:32;100948.16;;;19.59;79.02
24336;BME280;33098;52.400;16.880;2023-08-24T02:41:06;100949.89;;;19.59;79.49
24336;BME280;33098;52.400;16.880;2023-08-24T02:43:33;100950.22;;;19.61;79.66
24336;BME280;33098;52.400;16.880;2023-08-24T02:46:02;100948.98;;;19.53;79.57
24336;BME280;33098;52.400;16.880;2023-08-24T02:48:33;100952.61;;;19.36;79.81
24336;BME280;33098;52.400;16.880;2023-08-24T02:51:01;100949.46;;;19.28;80.22
24336;BME280;33098;52.400;16.880;2023-08-24T02:53:30;100943.09;;;19.26;80.81
24336;BME280;33098;52.400;16.880;2023-08-24T02:55:57;100943.04;;;19.21;81.07
24336;BME280;33098;52.400;16.880;2023-08-24T02:58:26;100944.60;;;19.20;81.45
24336;BME280;33098;52.400;16.880;2023-08-24T03:00:54;100947.09;;;19.19;81.70
24336;BME280;33098;52.400;16.880;2023-08-24T03:03:24;100948.42;;;19.15;81.75
24336;BME280;33098;52.400;16.880;2023-08-24T03:06:03;100945.73;;;19.11;82.14
24336;BME280;33098;52.400;16.880;2023-08-24T03:08:33;100942.17;;;19.09;82.56
24336;BME280;33098;52.400;16.880;2023-08-24T03:11:02;100939.63;;;19.07;82.63
24336;BME280;33098;52.400;16.880;2023-08-24T03:13:31;100940.70;;;19.04;82.91
24336;BME280;33098;52.400;16.880;2023-08-24T03:16:03;100940.48;;;19.06;83.15
24336;BME280;33098;52.400;16.880;2023-08-24T03:18:31;100940.84;;;19.03;83.20
24336;BME280;33098;52.400;16.880;2023-08-24T03:20:58;100938.80;;;18.98;83.45
24336;BME280;33098;52.400;16.880;2023-08-24T03:23:26;100940.16;;;18.92;83.58
24336;BME280;33098;52.400;16.880;2023-08-24T03:25:57;100939.71;;;18.86;83.70
24336;BME280;33098;52.400;16.880;2023-08-24T03:28:24;100936.92;;;18.78;84.01
24336;BME280;33098;52.400;16.880;2023-08-24T03:30:52;100941.14;;;18.81;84.54
24336;BME280;33098;52.400;16.880;2023-08-24T03:33:22;100935.92;;;18.83;84.72
24336;BME280;33098;52.400;16.880;2023-08-24T03:35:49;100943.40;;;18.82;84.84
24336;BME280;33098;52.400;16.880;2023-08-24T03:38:16;100939.42;;;18.78;85.09
24336;BME280;33098;52.400;16.880;2023-08-24T03:40:43;100938.22;;;18.74;85.10
24336;BME280;33098;52.400;16.880;2023-08-24T03:43:11;100944.30;;;18.66;85.31
24336;BME280;33098;52.400;16.880;2023-08-24T03:45:38;100940.29;;;18.69;85.73
24336;BME280;33098;52.400;16.880;2023-08-24T03:48:06;100945.64;;;18.66;86.01
24336;BME280;33098;52.400;16.880;2023-08-24T03:50:33;100946.03;;;18.58;86.15
24336;BME280;33098;52.400;16.880;2023-08-24T03:53:00;100945.80;;;18.54;86.40
24336;BME280;33098;52.400;16.880;2023-08-24T03:55:27;100950.58;;;18.48;86.88
24336;BME280;33098;52.400;16.880;2023-08-24T03:57:54;100949.10;;;18.44;87.23
24336;BME280;33098;52.400;16.880;2023-08-24T04:00:21;100952.00;;;18.45;87.71
24336;BME280;33098;52.400;16.880;2023-08-24T04:02:50;100951.81;;;18.49;88.06
24336;BME280;33098;52.400;16.880;2023-08-24T04:05:23;100950.41;;;18.51;88.07
24336;BME280;33098;52.400;16.880;2023-08-24T04:07:51;100949.47;;;18.39;88.10
24336;BME280;33098;52.400;16.880;2023-08-24T04:10:19;100949.54;;;18.33;88.32
24336;BME280;33098;52.400;16.880;2023-08-24T04:12:46;100948.02;;;18.34;88.89
24336;BME280;33098;52.400;16.880;2023-08-24T04:15:16;100952.85;;;18.34;89.32
24336;BME280;33098;52.400;16.880;2023-08-24T04:17:43;100957.75;;;18.39;89.71
24336;BME280;33098;52.400;16.880;2023-08-24T04:20:11;100965.96;;;18.46;90.10
24336;BME280;33098;52.400;16.880;2023-08-24T04:22:38;100969.83;;;18.56;90.44
24336;BME280;33098;52.400;16.880;2023-08-24T04:25:07;100966.13;;;18.69;90.55
24336;BME280;33098;52.400;16.880;2023-08-24T04:27:38;100969.48;;;18.76;90.32
24336;BME280;33098;52.400;16.880;2023-08-24T04:30:06;100971.37;;;18.77;90.29
24336;BME280;33098;52.400;16.880;2023-08-24T04:32:38;100972.15;;;18.78;90.46
24336;BME280;33098;52.400;16.880;2023-08-24T04:35:08;100968.77;;;18.85;90.73
24336;BME280;33098;52.400;16.880;2023-08-24T04:37:38;100964.89;;;18.90;90.48
24336;BME280;33098;52.400;16.880;2023-08-24T04:40:06;100964.48;;;18.94;90.44
24336;BME280;33098;52.400;16.880;2023-08-24T04:42:34;100966.42;;;18.99;90.81
24336;BME280;33098;52.400;16.880;2023-08-24T04:45:01;100968.38;;;19.08;90.75
24336;BME280;33098;52.400;16.880;2023-08-24T04:47:29;100966.23;;;19.16;90.75
24336;BME280;33098;52.400;16.880;2023-08-24T04:49:57;100971.05;;;19.20;90.72
24336;BME280;33098;52.400;16.880;2023-08-24T04:52:24;100971.56;;;19.27;90.71
24336;BME280;33098;52.400;16.880;2023-08-24T04:54:51;100971.17;;;19.32;90.57
24336;BME280;33098;52.400;16.880;2023-08-24T04:57:21;100971.33;;;19.31;90.39
24336;BME280;33098;52.400;16.880;2023-08-24T04:59:50;100972.84;;;19.25;90.33
24336;BME280;33098;52.400;16.880;2023-08-24T05:02:17;100974.08;;;19.22;90.64
24336;BME280;33098;52.400;16.880;2023-08-24T05:04:44;100972.78;;;19.31;91.07
24336;BME280;33098;52.400;16.880;2023-08-24T05:07:11;100971.86;;;19.42;90.99
24336;BME280;33098;52.400;16.880;2023-08-24T05:09:38;100969.58;;;19.49;90.89
24336;BME280;33098;52.400;16.880;2023-08-24T05:12:08;100969.17;;;19.52;90.64
24336;BME280;33098;52.400;16.880;2023-08-24T05:14:36;100964.86;;;19.53;90.54
24336;BME280;33098;52.400;16.880;2023-08-24T05:17:06;100959.42;;;19.56;90.68
24336;BME280;33098;52.400;16.880;2023-08-24T05:19:32;100956.45;;;19.58;90.40
24336;BME280;33098;52.400;16.880;2023-08-24T05:21:59;100956.92;;;19.61;90.38
24336;BME280;33098;52.400;16.880;2023-08-24T05:24:26;100959.88;;;19.59;90.15
24336;BME280;33098;52.400;16.880;2023-08-24T05:26:53;100958.81;;;19.55;89.98
24336;BME280;33098;52.400;16.880;2023-08-24T05:29:19;100962.77;;;19.52;90.24
24336;BME280;33098;52.400;16.880;2023-08-24T05:31:47;100960.89;;;19.48;90.22
24336;BME280;33098;52.400;16.880;2023-08-24T05:34:14;100957.05;;;19.51;90.68
24336;BME280;33098;52.400;16.880;2023-08-24T05:36:41;100955.00;;;19.55;90.83
24336;BME280;33098;52.400;16.880;2023-08-24T05:39:08;100952.98;;;19.54;90.71
24336;BME280;33098;52.400;16.880;2023-08-24T05:41:36;100953.48;;;19.51;90.74
24336;BME280;33098;52.400;16.880;2023-08-24T05:44:04;100957.93;;;19.50;90.74
24336;BME280;33098;52.400;16.880;2023-08-24T05:46:32;100966.01;;;19.47;90.90
24336;BME280;33098;52.400;16.880;2023-08-24T05:48:59;100973.55;;;19.54;91.40
24336;BME280;33098;52.400;16.880;2023-08-24T05:51:26;100970.74;;;19.66;91.58
24336;BME280;33098;52.400;16.880;2023-08-24T05:53:54;100968.55;;;19.70;91.21
24336;BME280;33098;52.400;16.880;2023-08-24T05:56:25;100977.91;;;19.78;91.35
24336;BME280;33098;52.400;16.880;2023-08-24T05:58:54;100976.41;;;19.89;91.03
24336;BME280;33098;52.400;16.880;2023-08-24T06:01:23;100978.27;;;19.95;90.94
24336;BME280;33098;52.400;16.880;2023-08-24T06:03:51;100978.13;;;20.04;90.85
24336;BME280;33098;52.400;16.880;2023-08-24T06:06:23;100975.11;;;20.17;90.48
24336;BME280;33098;52.400;16.880;2023-08-24T06:08:50;100975.64;;;20.21;90.15
24336;BME280;33098;52.400;16.880;2023-08-24T06:11:17;100979.57;;;20.24;89.96
24336;BME280;33098;52.400;16.880;2023-08-24T06:13:44;100985.09;;;20.31;89.75
24336;BME280;33098;52.400;16.880;2023-08-24T06:16:11;100984.48;;;20.33;89.24
24336;BME280;33098;52.400;16.880;2023-08-24T06:18:38;100985.36;;;20.50;89.58
24336;BME280;33098;52.400;16.880;2023-08-24T06:21:05;100984.98;;;20.87;89.39
24336;BME280;33098;52.400;16.880;2023-08-24T06:23:35;100977.98;;;21.15;88.43
24336;BME280;33098;52.400;16.880;2023-08-24T06:26:04;100977.36;;;21.19;86.72
24336;BME280;33098;52.400;16.880;2023-08-24T06:28:31;100976.48;;;21.11;85.87
24336;BME280;33098;52.400;16.880;2023-08-24T06:31:02;100971.85;;;21.12;85.58
24336;BME280;33098;52.400;16.880;2023-08-24T06:33:33;100969.02;;;21.15;85.43
24336;BME280;33098;52.400;16.880;2023-08-24T06:36:05;100971.52;;;21.23;85.39
24336;BME280;33098;52.400;16.880;2023-08-24T06:38:36;100966.23;;;21.28;85.23
24336;BME280;33098;52.400;16.880;2023-08-24T06:41:02;100964.59;;;21.29;84.47
24336;BME280;33098;52.400;16.880;2023-08-24T06:43:30;100958.84;;;21.26;83.53
24336;BME280;33098;52.400;16.880;2023-08-24T06:46:02;100956.72;;;21.31;83.35
24336;BME280;33098;52.400;16.880;2023-08-24T06:48:29;100959.11;;;21.36;82.39
24336;BME280;33098;52.400;16.880;2023-08-24T06:50:57;100956.52;;;21.35;81.35
24336;BME280;33098;52.400;16.880;2023-08-24T06:53:26;100959.60;;;21.35;80.80
24336;BME280;33098;52.400;16.880;2023-08-24T06:55:57;100959.67;;;21.39;80.68
24336;BME280;33098;52.400;16.880;2023-08-24T06:58:26;100958.05;;;21.47;80.42
24336;BME280;33098;52.400;16.880;2023-08-24T07:00:54;100954.27;;;21.50;80.35
24336;BME280;33098;52.400;16.880;2023-08-24T07:03:22;100952.25;;;21.58;80.59
24336;BME280;33098;52.400;16.880;2023-08-24T07:05:50;100963.21;;;21.70;79.47
24336;BME280;33098;52.400;16.880;2023-08-24T07:08:17;100969.92;;;21.80;79.42
24336;BME280;33098;52.400;16.880;2023-08-24T07:10:44;100970.89;;;21.90;78.74
24336;BME280;33098;52.400;16.880;2023-08-24T07:13:11;100973.30;;;22.00;77.65
24336;BME280;33098;52.400;16.880;2023-08-24T07:15:41;100975.73;;;22.06;76.12
24336;BME280;33098;52.400;16.880;2023-08-24T07:18:08;100973.23;;;22.12;75.66
24336;BME280;33098;52.400;16.880;2023-08-24T07:20:39;100974.20;;;22.20;75.72
24336;BME280;33098;52.400;16.880;2023-08-24T07:23:06;100977.14;;;22.32;75.36
24336;BME280;33098;52.400;16.880;2023-08-24T07:25:32;100976.22;;;22.42;74.54
24336;BME280;33098;52.400;16.880;2023-08-24T07:28:00;100974.29;;;22.49;74.14
24336;BME280;33098;52.400;16.880;2023-08-24T07:30:27;100975.20;;;22.54;73.52
24336;BME280;33098;52.400;16.880;2023-08-24T07:32:54;100975.54;;;22.61;73.41
24336;BME280;33098;52.400;16.880;2023-08-24T07:35:21;100976.19;;;22.72;73.38
24336;BME280;33098;52.400;16.880;2023-08-24T07:37:52;100975.73;;;22.86;72.84
24336;BME280;33098;52.400;16.880;2023-08-24T07:40:19;100978.73;;;22.94;71.95
24336;BME280;33098;52.400;16.880;2023-08-24T07:42:50;100977.45;;;23.03;71.89
24336;BME280;33098;52.400;16.880;2023-08-24T07:45:20;100977.14;;;23.08;70.84
24336;BME280;33098;52.400;16.880;2023-08-24T07:47:50;100983.39;;;23.13;70.36
24336;BME280;33098;52.400;16.880;2023-08-24T07:50:16;100980.45;;;23.17;68.98
24336;BME280;33098;52.400;16.880;2023-08-24T07:52:43;100985.23;;;23.21;67.73
24336;BME280;33098;52.400;16.880;2023-08-24T07:55:15;100984.13;;;23.21;66.58
24336;BME280;33098;52.400;16.880;2023-08-24T07:57:46;100981.35;;;23.23;66.71
24336;BME280;33098;52.400;16.880;2023-08-24T08:00:14;100984.41;;;23.27;66.25
24336;BME280;33098;52.400;16.880;2023-08-24T08:02:41;100986.70;;;23.30;66.25
24336;BME280;33098;52.400;16.880;2023-08-24T08:05:09;100986.93;;;23.36;65.80
24336;BME280;33098;52.400;16.880;2023-08-24T08:07:39;100988.17;;;23.42;65.29
24336;BME280;33098;52.400;16.880;2023-08-24T08:10:06;100994.12;;;23.48;65.03
24336;BME280;33098;52.400;16.880;2023-08-24T08:12:34;100988.69;;;23.52;64.54
24336;BME280;33098;52.400;16.880;2023-08-24T08:15:01;100993.20;;;23.53;64.54
24336;BME280;33098;52.400;16.880;2023-08-24T08:17:27;100992.94;;;23.55;64.14
24336;BME280;33098;52.400;16.880;2023-08-24T08:19:58;100991.41;;;23.52;63.96
24336;BME280;33098;52.400;16.880;2023-08-24T08:22:25;100991.22;;;23.49;64.16
24336;BME280;33098;52.400;16.880;2023-08-24T08:24:54;100990.60;;;23.46;64.09
24336;BME280;33098;52.400;16.880;2023-08-24T08:27:26;100990.30;;;23.47;63.57
24336;BME280;33098;52.400;16.880;2023-08-24T08:29:55;100988.41;;;23.42;63.19
24336;BME280;33098;52.400;16.880;2023-08-24T08:32:22;100988.44;;;23.40;63.18
24336;BME280;33098;52.400;16.880;2023-08-24T08:34:54;100989.74;;;23.41;63.39
24336;BME280;33098;52.400;16.880;2023-08-24T08:37:32;100993.48;;;23.43;63.39
24336;BME280;33098;52.400;16.880;2023-08-24T08:40:04;100997.34;;;23.40;62.43
24336;BME280;33098;52.400;16.880;2023-08-24T08:42:35;100996.05;;;23.40;62.78
24336;BME280;33098;52.400;16.880;2023-08-24T08:45:08;100997.21;;;23.44;62.31
24336;BME280;33098;52.400;16.880;2023-08-24T08:47:43;100997.73;;;23.43;61.93
24336;BME280;33098;52.400;16.880;2023-08-24T08:50:10;101001.88;;;23.45;62.03
24336;BME280;33098;52.400;16.880;2023-08-24T08:52:39;101000.40;;;23.44;60.17
24336;BME280;33098;52.400;16.880;2023-08-24T08:55:06;100999.91;;;23.46;61.27
24336;BME280;33098;52.400;16.880;2023-08-24T08:57:36;100998.99;;;23.50;61.49
24336;BME280;33098;52.400;16.880;2023-08-24T09:00:11;101003.77;;;23.55;61.88
24336;BME280;33098;52.400;16.880;2023-08-24T09:02:42;101003.69;;;23.60;61.87
24336;BME280;33098;52.400;16.880;2023-08-24T09:05:12;101002.87;;;23.65;61.98
24336;BME280;33098;52.400;16.880;2023-08-24T09:07:40;101000.95;;;23.71;62.00
24336;BME280;33098;52.400;16.880;2023-08-24T09:10:08;101000.48;;;23.73;61.36
24336;BME280;33098;52.400;16.880;2023-08-24T09:12:40;100998.56;;;23.75;61.31
24336;BME280;33098;52.400;16.880;2023-08-24T09:15:08;100995.95;;;23.80;61.47
24336;BME280;33098;52.400;16.880;2023-08-24T09:17:36;101000.80;;;23.80;60.06
24336;BME280;33098;52.400;16.880;2023-08-24T09:20:08;100996.65;;;23.80;60.28
24336;BME280;33098;52.400;16.880;2023-08-24T09:22:42;100992.00;;;23.84;60.51
24336;BME280;33098;52.400;16.880;2023-08-24T09:25:11;100987.81;;;23.90;60.64
24336;BME280;33098;52.400;16.880;2023-08-24T09:27:38;100984.39;;;23.95;60.16
24336;BME280;33098;52.400;16.880;2023-08-24T09:30:05;100976.91;;;24.01;60.43
24336;BME280;33098;52.400;16.880;2023-08-24T09:32:34;100974.52;;;24.06;60.70
24336;BME280;33098;52.400;16.880;2023-08-24T09:35:11;100974.54;;;24.13;60.29
24336;BME280;33098;52.400;16.880;2023-08-24T09:37:39;100979.06;;;24.20;59.88
24336;BME280;33098;52.400;16.880;2023-08-24T09:40:11;100976.88;;;24.29;60.00
24336;BME280;33098;52.400;16.880;2023-08-24T09:42:42;100975.45;;;24.37;59.99
24336;BME280;33098;52.400;16.880;2023-08-24T09:45:13;100970.99;;;24.46;59.99
24336;BME280;33098;52.400;16.880;2023-08-24T09:47:50;100965.05;;;24.53;59.40
24336;BME280;33098;52.400;16.880;2023-08-24T09:50:24;100957.58;;;24.59;59.57
24336;BME280;33098;52.400;16.880;2023-08-24T09:52:53;100958.88;;;24.66;59.82
24336;BME280;33098;52.400;16.880;2023-08-24T09:55:24;100954.24;;;24.74;58.89
24336;BME280;33098;52.400;16.880;2023-08-24T09:57:54;100951.97;;;24.81;58.85
24336;BME280;33098;52.400;16.880;2023-08-24T10:00:25;100948.40;;;24.86;57.79
24336;BME280;33098;52.400;16.880;2023-08-24T10:02:58;100944.85;;;24.91;58.16
24336;BME280;33098;52.400;16.880;2023-08-24T10:05:28;100940.58;;;25.03;58.28
24336;BME280;33098;52.400;16.880;2023-08-24T10:07:58;100934.25;;;25.15;58.04
24336;BME280;33098;52.400;16.880;2023-08-24T10:10:25;100936.58;;;25.26;57.19
24336;BME280;33098;52.400;16.880;2023-08-24T10:12:56;100935.73;;;25.36;56.90
24336;BME280;33098;52.400;16.880;2023-08-24T10:15:26;100931.48;;;25.47;56.90
24336;BME280;33098;52.400;16.880;2023-08-24T10:17:53;100935.27;;;25.54;56.48
24336;BME280;33098;52.400;16.880;2023-08-24T10:20:23;100937.62;;;25.65;56.19
24336;BME280;33098;52.400;16.880;2023-08-24T10:22:56;100942.29;;;25.79;56.13
24336;BME280;33098;52.400;16.880;2023-08-24T10:25:25;100938.08;;;25.92;55.73
24336;BME280;33098;52.400;16.880;2023-08-24T10:27:53;100931.55;;;26.06;55.09
24336;BME280;33098;52.400;16.880;2023-08-24T10:30:21;100926.03;;;26.17;54.98
24336;BME280;33098;52.400;16.880;2023-08-24T10:32:50;100920.44;;;26.24;54.55
24336;BME280;33098;52.400;16.880;2023-08-24T10:35:21;100918.41;;;26.30;54.56
24336;BME280;33098;52.400;16.880;2023-08-24T10:37:52;100918.09;;;26.40;54.38
24336;BME280;33098;52.400;16.880;2023-08-24T10:40:32;100914.53;;;26.51;54.01
24336;BME280;33098;52.400;16.880;2023-08-24T10:43:05;100912.13;;;26.63;53.81
24336;BME280;33098;52.400;16.880;2023-08-24T10:45:58;100908.34;;;26.72;53.44
24336;BME280;33098;52.400;16.880;2023-08-24T10:48:31;100904.20;;;26.86;52.97
24336;BME280;33098;52.400;16.880;2023-08-24T10:51:24;100895.39;;;27.00;52.94
24336;BME280;33098;52.400;16.880;2023-08-24T10:54:02;100891.76;;;27.16;52.60
24336;BME280;33098;52.400;16.880;2023-08-24T10:56:36;100887.94;;;27.34;52.25
24336;BME280;33098;52.400;16.880;2023-08-24T10:59:16;100881.79;;;27.59;51.67
24336;BME280;33098;52.400;16.880;2023-08-24T11:02:03;100882.26;;;27.86;51.41
24336;BME280;33098;52.400;16.880;2023-08-24T11:04:31;100879.95;;;28.13;50.20
24336;BME280;33098;52.400;16.880;2023-08-24T11:06:59;100869.29;;;28.21;49.63
24336;BME280;33098;52.400;16.880;2023-08-24T11:09:48;100865.54;;;28.33;49.22
24336;BME280;33098;52.400;16.880;2023-08-24T11:12:17;100866.27;;;28.39;49.10
24336;BME280;33098;52.400;16.880;2023-08-24T11:14:49;100865.29;;;28.52;48.75
24336;BME280;33098;52.400;16.880;2023-08-24T11:17:29;100860.47;;;28.65;48.58
24336;BME280;33098;52.400;16.880;2023-08-24T11:20:00;100866.20;;;28.79;48.35
24336;BME280;33098;52.400;16.880;2023-08-24T11:22:31;100858.59;;;28.94;47.46
24336;BME280;33098;52.400;16.880;2023-08-24T11:25:11;100862.91;;;29.19;47.72
24336;BME280;33098;52.400;16.880;2023-08-24T11:27:46;100865.90;;;29.48;47.70
24336;BME280;33098;52.400;16.880;2023-08-24T11:30:16;100862.48;;;29.63;47.45
24336;BME280;33098;52.400;16.880;2023-08-24T11:32:43;100860.27;;;29.72;47.04
24336;BME280;33098;52.400;16.880;2023-08-24T11:35:11;100855.34;;;29.65;46.70
24336;BME280;33098;52.400;16.880;2023-08-24T11:37:39;100854.13;;;29.63;46.41
24336;BME280;33098;52.400;16.880;2023-08-24T11:40:16;100850.98;;;29.66;46.64
24336;BME280;33098;52.400;16.880;2023-08-24T11:42:44;100850.83;;;29.65;46.44
24336;BME280;33098;52.400;16.880;2023-08-24T11:45:12;100848.69;;;29.74;46.67
24336;BME280;33098;52.400;16.880;2023-08-24T11:47:40;100851.18;;;29.85;46.26
24336;BME280;33098;52.400;16.880;2023-08-24T11:50:08;100853.13;;;29.79;44.41
24336;BME280;33098;52.400;16.880;2023-08-24T11:52:40;100851.48;;;29.67;44.71
24336;BME280;33098;52.400;16.880;2023-08-24T11:55:08;100851.84;;;29.68;45.30
24336;BME280;33098;52.400;16.880;2023-08-24T11:57:36;100849.09;;;29.82;45.12
24336;BME280;33098;52.400;16.880;2023-08-24T12:00:08;100844.05;;;30.06;44.49
24336;BME280;33098;52.400;16.880;2023-08-24T12:02:40;100847.39;;;30.19;45.08
24336;BME280;33098;52.400;16.880;2023-08-24T12:05:20;100852.50;;;30.32;43.57
24336;BME280;33098;52.400;16.880;2023-08-24T12:07:52;100846.31;;;30.07;43.87
24336;BME280;33098;52.400;16.880;2023-08-24T12:10:20;100846.97;;;30.14;44.09
24336;BME280;33098;52.400;16.880;2023-08-24T12:12:48;100851.96;;;30.30;44.41
24336;BME280;33098;52.400;16.880;2023-08-24T12:15:19;100840.88;;;30.47;44.20
24336;BME280;33098;52.400;16.880;2023-08-24T12:17:48;100838.33;;;30.75;44.19
24336;BME280;33098;52.400;16.880;2023-08-24T12:20:20;100832.63;;;30.99;43.95
24336;BME280;33098;52.400;16.880;2023-08-24T12:22:52;100828.39;;;31.09;43.38
24336;BME280;33098;52.400;16.880;2023-08-24T12:25:24;100833.14;;;31.06;43.14
24336;BME280;33098;52.400;16.880;2023-08-24T12:28:14;100830.11;;;30.99;43.58
24336;BME280;33098;52.400;16.880;2023-08-24T12:30:45;100828.94;;;30.97;43.46
24336;BME280;33098;52.400;16.880;2023-08-24T12:33:23;100822.33;;;31.00;43.60
24336;BME280;33098;52.400;16.880;2023-08-24T12:35:50;100815.92;;;31.14;43.77
24336;BME280;33098;52.400;16.880;2023-08-24T12:38:18;100811.80;;;31.24;43.67
24336;BME280;33098;52.400;16.880;2023-08-24T12:40:45;100813.60;;;31.29;43.59
24336;BME280;33098;52.400;16.880;2023-08-24T12:43:12;100810.64;;;31.41;43.61
24336;BME280;33098;52.400;16.880;2023-08-24T12:45:44;100809.25;;;31.68;43.55
24336;BME280;33098;52.400;16.880;2023-08-24T12:48:17;100804.23;;;31.97;42.99
24336;BME280;33098;52.400;16.880;2023-08-24T12:50:48;100803.02;;;32.10;42.46
24336;BME280;33098;52.400;16.880;2023-08-24T12:53:15;100792.60;;;32.25;42.68